Etusivu
METAR-TAF:

METAR-TAF

Lentoasemat :

Najaf, Irak

Leveyspiiri: 31-59-23N, Pituuspiiri: 44-24-15E, korkeus merenpinnasta: 31 m

Tämänhetkinen sää

Tämä raportti tehtiin 1 tunti ja 0 minuuttia sitten, kello 14.00 UTC
Tuuli 13 kn luoteesta
Lämpötila 21°C
Kosteus 46%
Ilmanpaine 1013 hPa
Näkyvyys 10 km tai enemmän
Hajonneita pilviä 4000 ft:n korkeudessa

METAR: ORNI 201400Z 32013KT 9999 BKN040 21/09 Q1013 NOSIG

Aika: 18:00 (15:00 UTC)

Sääennuste

Tämä raportti tehtiin 4 tuntia ja 0 minuuttia sitten, kello 11.00 UTC
Ennuste voimassa 20. päivästä klo 12 UTC - 21. päivään klo 12 UTC
Tuuli 10 kn lännestä/luoteesta
Näkyvyys: 8000 m

TAF: ORNI 201100Z 2012/2112 30010KT 8000 NSC

Säähavainnot ja -ennusteet yli 4000 lentoasemalta (METAR- ja TAF-raportit).

Käytössä olevat sääasemat on merkitty karttaan keltaisilla ja punaisilla pisteillä.

Aseta hiiri pisteen päälle nähdäksesi sääaseman nimen.

Klikkaa sitten nähdäksesi säähavainnot ja -ennusteet.

Kartan vaihtaminen: klikkaa mustalla rastilla varustettuja vihreitä pisteitä, niin voit zoomata sisään; viivalla varustettua vihreää pistettä, niin voit zoomata ulos tai vihreitä nuolia, niin pääset viereisille kartoille.


METAR-TAF: